createdAt,value
2022-09-26T00:02:04.578Z,73.57
2022-09-26T00:04:51.562Z,73.45
2022-09-26T00:07:38.405Z,73.47
2022-09-26T00:10:31.286Z,73.63
2022-09-26T00:13:18.032Z,73.96
2022-09-26T00:16:11.334Z,73.58
2022-09-26T00:18:59.173Z,73.55
2022-09-26T00:21:48.531Z,74.00
2022-09-26T00:24:35.670Z,73.99
2022-09-26T00:27:22.582Z,73.38
2022-09-26T00:30:14.702Z,73.50
2022-09-26T00:33:01.793Z,73.74
2022-09-26T00:35:52.451Z,73.61
2022-09-26T00:38:42.017Z,74.06
2022-09-26T00:41:30.660Z,73.75
2022-09-26T00:44:38.763Z,73.58
2022-09-26T00:47:41.917Z,73.44
2022-09-26T00:50:29.610Z,73.41
2022-09-26T00:53:26.751Z,73.98
2022-09-26T00:56:25.899Z,73.83
2022-09-26T00:59:29.304Z,74.03
2022-09-26T01:02:20.003Z,73.61
2022-09-26T01:05:07.239Z,73.60
2022-09-26T01:07:57.328Z,74.13
2022-09-26T01:10:47.898Z,74.15
2022-09-26T01:13:34.725Z,74.10
2022-09-26T01:16:21.391Z,73.89
2022-09-26T01:19:28.352Z,73.63
2022-09-26T01:22:33.848Z,74.00
2022-09-26T01:25:29.401Z,74.12
2022-09-26T01:28:27.515Z,73.96
2022-09-26T01:31:18.393Z,73.81
2022-09-26T01:34:10.963Z,73.88
2022-09-26T01:37:05.442Z,73.56
2022-09-26T01:39:58.245Z,74.14
2022-09-26T01:42:56.326Z,73.93
2022-09-26T01:45:48.452Z,73.87
2022-09-26T01:48:36.348Z,74.01
2022-09-26T01:51:24.921Z,73.72
2022-09-26T01:54:13.792Z,73.78
2022-09-26T01:57:00.426Z,73.96
2022-09-26T01:59:48.555Z,74.03
2022-09-26T02:02:36.239Z,73.99
2022-09-26T02:05:33.167Z,74.09
2022-09-26T02:08:24.504Z,74.06
2022-09-26T02:11:16.598Z,74.45
2022-09-26T02:14:04.279Z,74.51
2022-09-26T02:16:51.338Z,74.79
2022-09-26T02:20:10.880Z,74.53
2022-09-26T02:22:57.905Z,74.56
2022-09-26T02:25:44.561Z,74.66
2022-09-26T02:28:31.259Z,75.03
2022-09-26T02:31:22.045Z,74.91
2022-09-26T02:34:08.865Z,74.85
2022-09-26T02:36:55.942Z,74.90
2022-09-26T02:39:42.783Z,74.64
2022-09-26T02:42:33.892Z,74.86
2022-09-26T02:45:26.696Z,74.71
2022-09-26T02:48:25.665Z,74.52
2022-09-26T02:51:30.760Z,74.67
2022-09-26T02:54:26.202Z,74.61
2022-09-26T02:57:16.590Z,74.43
2022-09-26T03:00:10.884Z,74.51
2022-09-26T03:02:58.072Z,74.71
2022-09-26T03:05:44.737Z,74.63
2022-09-26T03:08:33.425Z,74.45
2022-09-26T03:11:20.995Z,74.41
2022-09-26T03:14:07.729Z,74.31
2022-09-26T03:16:54.434Z,74.41
2022-09-26T03:19:41.155Z,74.39
2022-09-26T03:22:27.820Z,74.28
2022-09-26T03:25:16.186Z,73.99
2022-09-26T03:28:02.856Z,74.36
2022-09-26T03:30:49.509Z,74.36
2022-09-26T03:33:36.186Z,74.51
2022-09-26T03:36:22.925Z,74.16
2022-09-26T03:39:09.675Z,74.28
2022-09-26T03:41:57.513Z,74.51
2022-09-26T03:44:44.179Z,74.17
2022-09-26T03:47:31.174Z,74.35
2022-09-26T03:50:17.874Z,74.17
2022-09-26T03:53:06.191Z,74.33
2022-09-26T03:55:52.884Z,74.09
2022-09-26T03:58:39.622Z,74.25
2022-09-26T04:01:26.807Z,74.23
2022-09-26T04:04:15.184Z,74.09
2022-09-26T04:07:01.796Z,74.13
2022-09-26T04:09:48.453Z,73.99
2022-09-26T04:12:35.089Z,74.04
2022-09-26T04:15:24.210Z,74.14
2022-09-26T04:18:13.394Z,74.03
2022-09-26T04:21:00.782Z,74.11
2022-09-26T04:23:47.541Z,74.18
2022-09-26T04:26:34.193Z,74.14
2022-09-26T04:29:20.849Z,74.00
2022-09-26T04:32:07.495Z,74.13
2022-09-26T04:34:54.174Z,74.23
2022-09-26T04:37:41.171Z,74.14
2022-09-26T04:40:27.972Z,73.96
2022-09-26T04:43:15.365Z,73.83
2022-09-26T04:46:02.307Z,73.98
2022-09-26T04:48:52.440Z,73.97
2022-09-26T04:51:39.098Z,74.03
2022-09-26T04:54:26.333Z,74.11
2022-09-26T04:57:19.324Z,74.02
2022-09-26T05:00:07.438Z,74.12
2022-09-26T05:02:54.650Z,74.16
2022-09-26T05:05:41.824Z,74.27
2022-09-26T05:08:28.511Z,73.93
2022-09-26T05:11:16.083Z,73.95
2022-09-26T05:14:03.492Z,74.16
2022-09-26T05:16:50.272Z,74.12
2022-09-26T05:19:37.083Z,74.28
2022-09-26T05:22:23.750Z,74.22
2022-09-26T05:25:29.135Z,74.28
2022-09-26T05:28:15.824Z,74.04
2022-09-26T05:31:02.960Z,74.56
2022-09-26T05:33:51.537Z,74.40
2022-09-26T05:36:38.290Z,74.40
2022-09-26T05:39:43.735Z,74.53
2022-09-26T05:42:30.405Z,74.51
2022-09-26T05:45:17.116Z,74.47
2022-09-26T05:48:04.224Z,74.32
2022-09-26T05:50:51.512Z,74.55
2022-09-26T05:53:38.702Z,74.64
2022-09-26T05:56:25.416Z,74.39
2022-09-26T05:59:12.226Z,74.49
2022-09-26T06:01:58.997Z,74.20
2022-09-26T06:04:45.717Z,74.43
2022-09-26T06:07:32.477Z,74.59
2022-09-26T06:10:22.144Z,74.29
2022-09-26T06:13:08.857Z,74.25
2022-09-26T06:15:57.362Z,74.53
2022-09-26T06:18:44.157Z,74.45
2022-09-26T06:21:40.081Z,74.67
2022-09-26T06:24:26.793Z,74.38
2022-09-26T06:27:13.538Z,74.15
2022-09-26T06:30:00.202Z,74.37
2022-09-26T06:32:47.342Z,74.47
2022-09-26T06:35:34.344Z,74.61
2022-09-26T06:38:21.084Z,74.78
2022-09-26T06:41:10.561Z,74.74
2022-09-26T06:43:57.227Z,74.67
2022-09-26T06:46:43.969Z,74.70
2022-09-26T06:49:30.881Z,74.70
2022-09-26T06:52:19.379Z,74.60
2022-09-26T06:55:10.080Z,74.59
2022-09-26T06:57:59.463Z,74.93
2022-09-26T07:00:46.181Z,75.03
2022-09-26T07:03:32.928Z,74.93
2022-09-26T07:06:20.096Z,74.51
2022-09-26T07:09:11.380Z,74.34
2022-09-26T07:12:15.783Z,74.25
2022-09-26T07:15:04.061Z,73.87
2022-09-26T07:17:51.090Z,73.85
2022-09-26T07:20:39.954Z,74.06
2022-09-26T07:23:26.675Z,74.28
2022-09-26T07:26:13.441Z,74.06
2022-09-26T07:29:00.195Z,73.85
2022-09-26T07:31:46.904Z,73.34
2022-09-26T07:34:33.601Z,73.33
2022-09-26T07:37:20.322Z,73.13
2022-09-26T07:40:07.284Z,72.92
2022-09-26T07:43:15.226Z,72.98
2022-09-26T07:46:20.031Z,73.19
2022-09-26T07:49:25.638Z,73.33
2022-09-26T07:52:12.343Z,73.25
2022-09-26T07:54:58.972Z,73.43
2022-09-26T07:57:49.386Z,73.05
2022-09-26T08:00:36.206Z,73.14
2022-09-26T08:03:26.202Z,73.06
2022-09-26T08:06:13.553Z,72.78
2022-09-26T08:09:00.540Z,73.19
2022-09-26T08:11:47.360Z,73.23
2022-09-26T08:14:34.093Z,72.88
2022-09-26T08:17:20.744Z,72.61
2022-09-26T08:20:07.547Z,72.31
2022-09-26T08:22:57.149Z,71.79
2022-09-26T08:25:43.911Z,71.77
2022-09-26T08:28:30.537Z,70.75
2022-09-26T08:31:18.802Z,70.14
2022-09-26T08:34:05.940Z,70.63
2022-09-26T08:36:53.835Z,70.42
2022-09-26T08:39:40.501Z,69.76
2022-09-26T08:42:31.514Z,69.75
2022-09-26T08:45:37.083Z,69.07
2022-09-26T08:48:50.330Z,69.42
2022-09-26T08:51:40.665Z,69.00
2022-09-26T08:54:32.135Z,69.00
2022-09-26T08:57:18.773Z,68.37
2022-09-26T09:00:15.318Z,67.37
2022-09-26T09:03:10.979Z,67.75
2022-09-26T09:06:03.429Z,67.90
2022-09-26T09:08:50.632Z,68.23
2022-09-26T09:11:51.203Z,67.68
2022-09-26T09:14:41.044Z,68.31
2022-09-26T09:17:32.011Z,68.21
2022-09-26T09:20:27.674Z,68.80
2022-09-26T09:23:18.162Z,68.60
2022-09-26T09:29:48.868Z,68.24
2022-09-26T09:32:47.249Z,65.81
2022-09-26T09:35:38.971Z,66.18
2022-09-26T09:38:35.222Z,66.17
2022-09-26T09:41:29.350Z,64.76
2022-09-26T09:44:24.367Z,63.78
2022-09-26T09:47:12.707Z,63.78
2022-09-26T09:49:59.705Z,64.11
2022-09-26T09:52:46.378Z,63.86
2022-09-26T09:55:45.126Z,63.37
2022-09-26T09:58:44.559Z,62.71
2022-09-26T10:01:35.922Z,62.04
2022-09-26T10:04:32.395Z,61.54
2022-09-26T10:07:19.099Z,60.35
2022-09-26T10:10:08.001Z,60.24
2022-09-26T10:12:56.313Z,60.75
2022-09-26T10:15:44.852Z,60.68
2022-09-26T10:18:31.599Z,60.09
2022-09-26T10:21:18.974Z,60.07
2022-09-26T10:24:05.874Z,59.88
2022-09-26T10:26:52.563Z,60.04
2022-09-26T10:29:39.330Z,59.84
2022-09-26T10:32:26.832Z,59.98
2022-09-26T10:35:19.763Z,59.73
2022-09-26T10:38:07.425Z,59.32
2022-09-26T10:40:55.639Z,59.45
2022-09-26T10:43:42.725Z,60.01
2022-09-26T10:46:29.948Z,59.99
2022-09-26T10:49:18.931Z,59.82
2022-09-26T10:52:18.455Z,59.58
2022-09-26T10:55:16.555Z,58.80
2022-09-26T10:58:07.935Z,58.63
2022-09-26T11:00:59.464Z,58.58
2022-09-26T11:03:46.293Z,57.61
2022-09-26T11:06:34.313Z,57.40
2022-09-26T11:09:20.967Z,57.81
2022-09-26T11:12:39.993Z,57.88
2022-09-26T11:15:27.763Z,56.93
2022-09-26T11:18:17.717Z,56.34
2022-09-26T11:21:31.520Z,55.54
2022-09-26T11:24:22.753Z,53.28
2022-09-26T11:27:15.834Z,52.46
2022-09-26T11:30:12.398Z,52.07
2022-09-26T11:33:00.930Z,50.61
2022-09-26T11:36:11.119Z,51.20
2022-09-26T11:38:57.916Z,49.97
2022-09-26T11:41:46.406Z,49.09
2022-09-26T11:44:34.748Z,47.62
2022-09-26T11:47:29.577Z,47.12
2022-09-26T11:50:20.362Z,48.47
2022-09-26T11:53:26.618Z,48.63
2022-09-26T11:56:21.933Z,48.08
2022-09-26T11:59:17.288Z,48.79
2022-09-26T12:02:24.071Z,49.28
2022-09-26T12:05:27.336Z,49.18
2022-09-26T12:08:14.594Z,48.90
2022-09-26T12:11:10.650Z,48.33
2022-09-26T12:14:03.389Z,49.18
2022-09-26T12:16:53.097Z,49.43
2022-09-26T12:19:42.509Z,49.57
2022-09-26T12:22:35.975Z,49.77
2022-09-26T12:25:36.063Z,49.49
2022-09-26T12:28:31.735Z,49.22
2022-09-26T12:31:31.890Z,47.29
2022-09-26T12:34:24.105Z,48.21
2022-09-26T12:37:16.819Z,47.21
2022-09-26T12:40:22.228Z,48.49
2022-09-26T12:43:28.089Z,48.25
2022-09-26T12:46:18.240Z,48.31
2022-09-26T12:49:14.168Z,47.21
2022-09-26T12:52:10.737Z,48.16
2022-09-26T12:55:06.504Z,48.37
2022-09-26T12:57:57.139Z,48.01
2022-09-26T13:00:45.702Z,48.38
2022-09-26T13:03:36.123Z,48.46
2022-09-26T13:06:27.955Z,48.62
2022-09-26T13:09:14.678Z,48.53
2022-09-26T13:12:19.969Z,48.76
2022-09-26T13:15:23.770Z,48.69
2022-09-26T13:18:10.344Z,48.47
2022-09-26T13:20:58.947Z,47.77
2022-09-26T13:23:57.200Z,48.30
2022-09-26T13:26:46.880Z,48.81
2022-09-26T13:29:33.718Z,49.32
2022-09-26T13:32:22.824Z,49.16
2022-09-26T13:35:19.441Z,49.21
2022-09-26T13:38:34.657Z,49.12
2022-09-26T13:41:27.273Z,49.18
2022-09-26T13:44:23.090Z,49.76
2022-09-26T13:47:13.409Z,49.13
2022-09-26T13:50:01.242Z,49.48
2022-09-26T13:52:52.455Z,49.23
2022-09-26T13:55:39.241Z,48.87
2022-09-26T13:58:32.015Z,49.56
2022-09-26T14:01:25.971Z,49.41
2022-09-26T14:04:17.548Z,48.34
2022-09-26T14:07:35.141Z,49.08
2022-09-26T14:10:24.771Z,48.53
2022-09-26T14:13:32.558Z,48.64
2022-09-26T14:16:28.486Z,49.05
2022-09-26T14:19:36.313Z,48.81
2022-09-26T14:22:25.967Z,49.09
2022-09-26T14:25:31.869Z,49.19
2022-09-26T14:28:22.754Z,48.74
2022-09-26T14:31:13.015Z,48.81
2022-09-26T14:34:18.511Z,49.09
2022-09-26T14:37:16.682Z,49.49
2022-09-26T14:40:06.799Z,49.46
2022-09-26T14:43:12.246Z,49.53
2022-09-26T14:46:02.777Z,49.77
2022-09-26T14:48:55.753Z,49.38
2022-09-26T14:51:42.461Z,49.10
2022-09-26T14:54:34.910Z,49.49
2022-09-26T14:57:23.945Z,49.44
2022-09-26T15:00:33.813Z,49.47
2022-09-26T15:03:20.536Z,49.31
2022-09-26T15:06:10.037Z,49.64
2022-09-26T15:08:59.221Z,49.51
2022-09-26T15:11:51.554Z,49.33
2022-09-26T15:14:40.158Z,48.74
2022-09-26T15:17:31.831Z,48.83
2022-09-26T15:20:19.153Z,49.04
2022-09-26T15:23:20.142Z,49.14
2022-09-26T15:26:06.861Z,49.49
2022-09-26T15:28:54.059Z,49.34
2022-09-26T15:31:44.297Z,49.19
2022-09-26T15:34:34.991Z,49.36
2022-09-26T15:37:23.069Z,49.62
2022-09-26T15:40:19.948Z,49.67
2022-09-26T15:43:09.658Z,49.01
2022-09-26T15:45:58.576Z,49.51
2022-09-26T15:48:45.398Z,49.12
2022-09-26T15:51:36.088Z,49.14
2022-09-26T15:54:26.921Z,48.94
2022-09-26T15:57:13.703Z,48.53
2022-09-26T16:00:00.344Z,48.88
2022-09-26T16:02:47.216Z,49.21
2022-09-26T16:05:36.785Z,49.59
2022-09-26T16:08:24.145Z,49.85
2022-09-26T16:11:10.830Z,50.13
2022-09-26T16:13:58.159Z,50.43
2022-09-26T16:16:44.806Z,50.78
2022-09-26T16:19:37.291Z,50.69
2022-09-26T16:22:40.489Z,50.71
2022-09-26T16:25:28.405Z,51.05
2022-09-26T16:28:18.914Z,51.06
2022-09-26T16:31:07.634Z,51.32
2022-09-26T16:33:54.831Z,51.29
2022-09-26T16:36:41.508Z,51.28
2022-09-26T16:39:29.176Z,51.77
2022-09-26T16:42:16.293Z,51.89
2022-09-26T16:45:03.925Z,52.20
2022-09-26T16:47:50.588Z,52.19
2022-09-26T16:50:40.107Z,52.36
2022-09-26T16:53:26.812Z,52.35
2022-09-26T16:56:17.492Z,52.53
2022-09-26T16:59:04.756Z,52.94
2022-09-26T17:01:55.655Z,52.63
2022-09-26T17:04:56.498Z,52.88
2022-09-26T17:07:43.294Z,52.75
2022-09-26T17:10:30.084Z,52.80
2022-09-26T17:13:24.479Z,52.90
2022-09-26T17:16:11.913Z,52.40
2022-09-26T17:18:58.912Z,52.68
2022-09-26T17:21:49.303Z,52.93
2022-09-26T17:24:35.967Z,53.16
2022-09-26T17:27:25.773Z,53.12
2022-09-26T17:33:17.661Z,53.60
2022-09-26T17:36:06.744Z,53.59
2022-09-26T17:38:57.148Z,53.61
2022-09-26T17:41:52.320Z,53.92
2022-09-26T17:44:46.440Z,53.88
2022-09-26T17:47:34.379Z,53.93
2022-09-26T17:50:33.573Z,54.15
2022-09-26T17:53:28.652Z,54.21
2022-09-26T19:16:58.258Z,57.44
2022-09-26T19:23:46.816Z,57.28
2022-09-26T19:31:58.490Z,57.47
2022-09-26T19:34:46.074Z,57.23
2022-09-26T19:37:40.370Z,57.61
2022-09-26T19:40:30.612Z,57.14
2022-09-26T19:47:20.465Z,57.48
2022-09-26T19:50:48.520Z,57.40
2022-09-26T19:58:35.268Z,58.14
2022-09-26T20:02:07.009Z,57.94
2022-09-26T20:11:44.481Z,57.93
2022-09-26T20:14:32.882Z,58.10
2022-09-26T20:17:23.948Z,58.26
2022-09-26T20:20:23.135Z,58.50
2022-09-26T20:23:21.132Z,58.41
2022-09-26T20:26:14.428Z,59.27
2022-09-26T20:29:04.412Z,58.86
2022-09-26T20:31:54.246Z,58.85
2022-09-26T20:34:44.745Z,58.67
2022-09-26T20:37:34.643Z,59.60
2022-09-26T20:40:24.766Z,59.53
2022-09-26T20:43:17.888Z,60.21
2022-09-26T20:46:04.861Z,59.77
2022-09-26T20:48:52.792Z,60.24
2022-09-26T20:51:39.564Z,59.71
2022-09-26T20:54:31.549Z,59.74
2022-09-26T20:57:20.788Z,60.47
2022-09-26T21:00:14.932Z,59.88
2022-09-26T21:03:02.819Z,60.61
2022-09-26T21:05:49.479Z,60.48
2022-09-26T21:08:53.535Z,60.65
2022-09-26T21:11:41.604Z,60.27
2022-09-26T21:14:28.266Z,60.42
2022-09-26T21:17:18.573Z,60.90
2022-09-26T21:20:05.470Z,60.19
2022-09-26T21:22:52.234Z,60.21
2022-09-26T21:25:38.936Z,60.40
2022-09-26T21:28:26.862Z,61.13
2022-09-26T21:31:22.765Z,60.80
2022-09-26T21:34:10.937Z,60.46
2022-09-26T21:36:58.949Z,60.84
2022-09-26T21:39:45.627Z,61.25
2022-09-26T21:42:32.330Z,61.19
2022-09-26T21:45:21.418Z,61.06
2022-09-26T21:48:12.205Z,60.86
2022-09-26T21:51:00.132Z,61.41
2022-09-26T21:53:48.371Z,60.67
2022-09-26T21:56:36.281Z,61.26
2022-09-26T21:59:23.020Z,61.17
2022-09-26T22:02:09.710Z,60.85
2022-09-26T22:04:56.411Z,60.80
2022-09-26T22:07:43.106Z,61.10
2022-09-26T22:10:29.826Z,61.26
2022-09-26T22:13:16.485Z,61.58
2022-09-26T22:16:07.005Z,61.80
2022-09-26T22:18:53.646Z,61.62
2022-09-26T22:21:40.310Z,61.68
2022-09-26T22:24:26.955Z,61.92
2022-09-26T22:27:13.631Z,61.99
2022-09-26T22:30:00.295Z,61.99
2022-09-26T22:32:46.983Z,62.04
2022-09-26T22:35:34.827Z,61.52
2022-09-26T22:38:21.477Z,61.98
2022-09-26T22:41:08.155Z,62.13
2022-09-26T22:43:54.926Z,62.03
2022-09-26T22:46:41.616Z,62.54
2022-09-26T22:49:28.649Z,61.89
2022-09-26T22:52:15.477Z,61.93
2022-09-26T22:55:02.287Z,62.24
2022-09-26T22:57:52.524Z,62.31
2022-09-26T23:00:39.252Z,62.46
2022-09-26T23:03:26.013Z,62.25
2022-09-26T23:06:12.795Z,62.66
2022-09-26T23:08:59.496Z,62.54
2022-09-26T23:11:47.208Z,62.04
2022-09-26T23:14:36.007Z,62.26
2022-09-26T23:17:22.675Z,62.25
2022-09-26T23:20:09.341Z,62.42
2022-09-26T23:22:56.121Z,62.55
2022-09-26T23:25:46.700Z,62.63
2022-09-26T23:28:35.343Z,62.68
2022-09-26T23:31:22.836Z,62.50
2022-09-26T23:34:09.806Z,62.52
2022-09-26T23:36:56.451Z,62.67
2022-09-26T23:39:43.082Z,62.94
2022-09-26T23:42:29.726Z,62.71
2022-09-26T23:45:16.402Z,62.91
2022-09-26T23:48:03.058Z,63.16
2022-09-26T23:50:49.807Z,63.01
2022-09-26T23:53:36.506Z,63.45
2022-09-26T23:56:23.715Z,63.40
2022-09-26T23:59:10.432Z,63.24
